Houston, Texas
Traffic Map
Current Weather Conditions
Houston, Texas
Few Clouds
Few Clouds
15°
Feels Like: 15°
Wind Chill: 15° Ceiling: Unl
Heat Index: 15° Visibility: 10mi
Dew Point: Wind: 12mph
Humidity: 36% Direction: 310° (NW)
Pressure: 30.27in Gusts: 0mph
Raw Report DataKIAH 061953Z 31010KT 10SM FEW040 15/00 A3027 RMK AO2 SLP251 T01500000 $
Traffic Incident Summary
Active as of:
Severity:
Category:
InformationThere was an issue retrieving the traffic information for this location. Please try a different location or try again shortly.
Advertisements
Track Severe Weather on mobile